Terminal Aerodrome Forecast
Issued by NWS

Home | Current Version | Previous Version | Text Only | Print | Product List | Glossary On
Versions: 1 2 3 4 5 6 7 8 9 10 11 12 13 14 15
000
FTUS43 KEAX 270903 AAA
TAFSTJ
TAF AMD
KSTJ 270903Z 2709/2806 13003KT P6SM BKN250
     FM271500 18009KT P6SM FEW050 SCT180
     FM280100 17006KT P6SM FEW140=

USA.gov is the U.S. government's official web portal to all federal, state and local government web resources and services.